sensor_id;sensor_type;location;lat;lon;timestamp;P1;durP1;ratioP1;P2;durP2;ratioP2
73239;SDS011;61452;40.054;4.110;2022-07-12T00:04:26;2.70;;;2.17;;
73239;SDS011;61452;40.054;4.110;2022-07-12T00:09:29;2.40;;;1.83;;
73239;SDS011;61452;40.054;4.110;2022-07-12T00:14:32;2.65;;;2.00;;
73239;SDS011;61452;40.054;4.110;2022-07-12T00:19:34;2.95;;;1.73;;
73239;SDS011;61452;40.054;4.110;2022-07-12T00:24:36;3.78;;;2.30;;
73239;SDS011;61452;40.054;4.110;2022-07-12T00:29:39;3.10;;;2.10;;
73239;SDS011;61452;40.054;4.110;2022-07-12T00:34:41;2.42;;;2.17;;
73239;SDS011;61452;40.054;4.110;2022-07-12T00:39:44;3.05;;;2.50;;
73239;SDS011;61452;40.054;4.110;2022-07-12T00:44:46;4.13;;;2.30;;
73239;SDS011;61452;40.054;4.110;2022-07-12T00:49:48;3.28;;;2.35;;
73239;SDS011;61452;40.054;4.110;2022-07-12T00:54:51;3.33;;;2.13;;
73239;SDS011;61452;40.054;4.110;2022-07-12T00:59:54;2.60;;;2.15;;
73239;SDS011;61452;40.054;4.110;2022-07-12T01:04:56;3.60;;;2.10;;
73239;SDS011;61452;40.054;4.110;2022-07-12T01:10:00;3.58;;;2.03;;
73239;SDS011;61452;40.054;4.110;2022-07-12T01:15:05;2.35;;;2.15;;
73239;SDS011;61452;40.054;4.110;2022-07-12T01:20:10;3.47;;;1.98;;
73239;SDS011;61452;40.054;4.110;2022-07-12T01:25:13;2.95;;;2.03;;
73239;SDS011;61452;40.054;4.110;2022-07-12T01:30:16;4.70;;;2.20;;
73239;SDS011;61452;40.054;4.110;2022-07-12T01:35:18;2.83;;;2.20;;
73239;SDS011;61452;40.054;4.110;2022-07-12T01:40:22;3.58;;;2.28;;
73239;SDS011;61452;40.054;4.110;2022-07-12T01:45:25;3.03;;;2.17;;
73239;SDS011;61452;40.054;4.110;2022-07-12T01:50:27;2.88;;;2.13;;
73239;SDS011;61452;40.054;4.110;2022-07-12T01:55:30;4.78;;;2.50;;
73239;SDS011;61452;40.054;4.110;2022-07-12T02:00:33;3.05;;;2.20;;
73239;SDS011;61452;40.054;4.110;2022-07-12T02:05:35;2.47;;;1.90;;
73239;SDS011;61452;40.054;4.110;2022-07-12T02:10:39;2.33;;;2.10;;
73239;SDS011;61452;40.054;4.110;2022-07-12T02:15:42;2.80;;;2.03;;
73239;SDS011;61452;40.054;4.110;2022-07-12T02:20:44;2.55;;;2.33;;
73239;SDS011;61452;40.054;4.110;2022-07-12T02:25:46;2.65;;;2.30;;
73239;SDS011;61452;40.054;4.110;2022-07-12T02:30:49;2.65;;;2.22;;
73239;SDS011;61452;40.054;4.110;2022-07-12T02:35:51;3.08;;;2.28;;
73239;SDS011;61452;40.054;4.110;2022-07-12T02:40:53;2.63;;;2.20;;
73239;SDS011;61452;40.054;4.110;2022-07-12T02:46:12;2.80;;;2.10;;
73239;SDS011;61452;40.054;4.110;2022-07-12T02:51:15;3.65;;;2.35;;
73239;SDS011;61452;40.054;4.110;2022-07-12T02:56:18;2.70;;;2.13;;
73239;SDS011;61452;40.054;4.110;2022-07-12T03:01:20;2.35;;;2.00;;
73239;SDS011;61452;40.054;4.110;2022-07-12T03:06:22;2.47;;;2.13;;
73239;SDS011;61452;40.054;4.110;2022-07-12T03:11:25;2.60;;;2.10;;
73239;SDS011;61452;40.054;4.110;2022-07-12T03:16:27;2.88;;;2.40;;
73239;SDS011;61452;40.054;4.110;2022-07-12T03:21:30;3.22;;;2.22;;
73239;SDS011;61452;40.054;4.110;2022-07-12T03:26:32;3.53;;;2.00;;
73239;SDS011;61452;40.054;4.110;2022-07-12T03:31:34;4.88;;;2.42;;
73239;SDS011;61452;40.054;4.110;2022-07-12T03:36:37;2.55;;;2.22;;
73239;SDS011;61452;40.054;4.110;2022-07-12T03:41:39;2.83;;;2.28;;
73239;SDS011;61452;40.054;4.110;2022-07-12T03:46:41;2.90;;;2.30;;
73239;SDS011;61452;40.054;4.110;2022-07-12T03:51:44;2.45;;;2.25;;
73239;SDS011;61452;40.054;4.110;2022-07-12T03:56:46;4.68;;;2.50;;
73239;SDS011;61452;40.054;4.110;2022-07-12T04:07:10;3.25;;;2.33;;
73239;SDS011;61452;40.054;4.110;2022-07-12T04:12:12;3.20;;;2.10;;
73239;SDS011;61452;40.054;4.110;2022-07-12T04:17:15;3.38;;;2.47;;
73239;SDS011;61452;40.054;4.110;2022-07-12T04:22:17;2.60;;;2.20;;
73239;SDS011;61452;40.054;4.110;2022-07-12T04:27:20;2.92;;;2.40;;
73239;SDS011;61452;40.054;4.110;2022-07-12T04:32:22;3.05;;;2.60;;
73239;SDS011;61452;40.054;4.110;2022-07-12T04:37:24;2.83;;;2.25;;
73239;SDS011;61452;40.054;4.110;2022-07-12T04:42:27;2.63;;;2.42;;
73239;SDS011;61452;40.054;4.110;2022-07-12T04:47:29;4.32;;;2.60;;
73239;SDS011;61452;40.054;4.110;2022-07-12T04:52:32;3.40;;;2.55;;
73239;SDS011;61452;40.054;4.110;2022-07-12T04:57:35;2.60;;;2.33;;
73239;SDS011;61452;40.054;4.110;2022-07-12T05:02:37;3.05;;;2.17;;
73239;SDS011;61452;40.054;4.110;2022-07-12T05:07:40;2.63;;;2.40;;
73239;SDS011;61452;40.054;4.110;2022-07-12T05:12:47;2.90;;;2.50;;
73239;SDS011;61452;40.054;4.110;2022-07-12T05:17:50;2.88;;;2.40;;
73239;SDS011;61452;40.054;4.110;2022-07-12T05:22:53;2.85;;;2.40;;
73239;SDS011;61452;40.054;4.110;2022-07-12T05:27:57;2.95;;;2.55;;
73239;SDS011;61452;40.054;4.110;2022-07-12T05:32:59;2.72;;;2.53;;
73239;SDS011;61452;40.054;4.110;2022-07-12T05:38:02;3.22;;;2.40;;
73239;SDS011;61452;40.054;4.110;2022-07-12T05:43:05;3.97;;;3.58;;
73239;SDS011;61452;40.054;4.110;2022-07-12T05:48:07;2.80;;;2.45;;
73239;SDS011;61452;40.054;4.110;2022-07-12T05:53:10;3.28;;;2.97;;
73239;SDS011;61452;40.054;4.110;2022-07-12T05:58:24;3.75;;;2.60;;
73239;SDS011;61452;40.054;4.110;2022-07-12T06:03:26;4.22;;;2.60;;
73239;SDS011;61452;40.054;4.110;2022-07-12T06:08:29;2.80;;;2.50;;
73239;SDS011;61452;40.054;4.110;2022-07-12T06:13:31;2.50;;;2.30;;
73239;SDS011;61452;40.054;4.110;2022-07-12T06:18:34;4.28;;;2.72;;
73239;SDS011;61452;40.054;4.110;2022-07-12T06:23:36;3.03;;;2.67;;
73239;SDS011;61452;40.054;4.110;2022-07-12T06:28:39;2.78;;;2.58;;
73239;SDS011;61452;40.054;4.110;2022-07-12T06:33:42;2.58;;;2.20;;
73239;SDS011;61452;40.054;4.110;2022-07-12T06:38:45;3.10;;;2.90;;
73239;SDS011;61452;40.054;4.110;2022-07-12T06:43:50;2.75;;;2.53;;
73239;SDS011;61452;40.054;4.110;2022-07-12T06:48:53;2.97;;;2.67;;
73239;SDS011;61452;40.054;4.110;2022-07-12T06:53:55;3.20;;;2.78;;
73239;SDS011;61452;40.054;4.110;2022-07-12T06:58:58;3.08;;;2.63;;
73239;SDS011;61452;40.054;4.110;2022-07-12T07:04:01;2.63;;;2.42;;
73239;SDS011;61452;40.054;4.110;2022-07-12T07:09:03;2.65;;;2.42;;
73239;SDS011;61452;40.054;4.110;2022-07-12T07:14:09;3.10;;;2.80;;
73239;SDS011;61452;40.054;4.110;2022-07-12T07:19:11;3.20;;;2.65;;
73239;SDS011;61452;40.054;4.110;2022-07-12T07:24:17;3.83;;;2.90;;
73239;SDS011;61452;40.054;4.110;2022-07-12T07:29:19;3.95;;;2.83;;
73239;SDS011;61452;40.054;4.110;2022-07-12T07:34:40;2.50;;;2.30;;
73239;SDS011;61452;40.054;4.110;2022-07-12T07:39:43;2.65;;;2.45;;
73239;SDS011;61452;40.054;4.110;2022-07-12T07:44:46;2.80;;;2.50;;
73239;SDS011;61452;40.054;4.110;2022-07-12T07:50:08;3.35;;;3.05;;
73239;SDS011;61452;40.054;4.110;2022-07-12T07:55:11;3.28;;;2.97;;
73239;SDS011;61452;40.054;4.110;2022-07-12T08:00:14;3.20;;;2.90;;
73239;SDS011;61452;40.054;4.110;2022-07-12T08:05:16;4.97;;;3.25;;
73239;SDS011;61452;40.054;4.110;2022-07-12T08:10:19;5.00;;;3.20;;
73239;SDS011;61452;40.054;4.110;2022-07-12T08:15:22;3.20;;;2.90;;
73239;SDS011;61452;40.054;4.110;2022-07-12T08:20:25;4.38;;;3.20;;
73239;SDS011;61452;40.054;4.110;2022-07-12T08:25:46;3.40;;;3.10;;
73239;SDS011;61452;40.054;4.110;2022-07-12T08:30:49;3.70;;;3.40;;
73239;SDS011;61452;40.054;4.110;2022-07-12T08:35:51;4.85;;;3.00;;
73239;SDS011;61452;40.054;4.110;2022-07-12T08:40:54;3.08;;;2.78;;
73239;SDS011;61452;40.054;4.110;2022-07-12T08:46:01;4.03;;;3.60;;
73239;SDS011;61452;40.054;4.110;2022-07-12T08:51:17;3.28;;;2.97;;
73239;SDS011;61452;40.054;4.110;2022-07-12T08:56:33;3.15;;;2.95;;
73239;SDS011;61452;40.054;4.110;2022-07-12T09:01:49;3.33;;;3.03;;
73239;SDS011;61452;40.054;4.110;2022-07-12T09:06:53;3.70;;;3.35;;
73239;SDS011;61452;40.054;4.110;2022-07-12T09:11:59;4.05;;;3.00;;
73239;SDS011;61452;40.054;4.110;2022-07-12T09:17:05;4.22;;;2.80;;
73239;SDS011;61452;40.054;4.110;2022-07-12T09:22:14;3.10;;;2.80;;
73239;SDS011;61452;40.054;4.110;2022-07-12T09:27:25;3.92;;;3.13;;
73239;SDS011;61452;40.054;4.110;2022-07-12T09:32:27;2.92;;;2.63;;
73239;SDS011;61452;40.054;4.110;2022-07-12T09:37:47;3.47;;;2.53;;
73239;SDS011;61452;40.054;4.110;2022-07-12T09:42:51;3.90;;;3.08;;
73239;SDS011;61452;40.054;4.110;2022-07-12T09:47:54;3.38;;;3.05;;
73239;SDS011;61452;40.054;4.110;2022-07-12T09:52:57;3.95;;;3.20;;
73239;SDS011;61452;40.054;4.110;2022-07-12T09:58:02;3.47;;;3.15;;
73239;SDS011;61452;40.054;4.110;2022-07-12T10:03:06;3.95;;;2.90;;
73239;SDS011;61452;40.054;4.110;2022-07-12T10:13:13;3.55;;;3.08;;
73239;SDS011;61452;40.054;4.110;2022-07-12T10:18:18;3.10;;;2.80;;
73239;SDS011;61452;40.054;4.110;2022-07-12T10:28:54;3.33;;;2.70;;
73239;SDS011;61452;40.054;4.110;2022-07-12T10:39:24;3.63;;;3.13;;
73239;SDS011;61452;40.054;4.110;2022-07-12T10:44:40;3.10;;;2.80;;
73239;SDS011;61452;40.054;4.110;2022-07-12T10:49:48;3.97;;;3.00;;
73239;SDS011;61452;40.054;4.110;2022-07-12T10:59:57;3.22;;;2.75;;
73239;SDS011;61452;40.054;4.110;2022-07-12T11:05:02;3.28;;;2.65;;
73239;SDS011;61452;40.054;4.110;2022-07-12T11:10:05;3.95;;;3.00;;
73239;SDS011;61452;40.054;4.110;2022-07-12T11:15:08;4.32;;;2.67;;
73239;SDS011;61452;40.054;4.110;2022-07-12T11:20:12;3.50;;;3.00;;
73239;SDS011;61452;40.054;4.110;2022-07-12T11:25:15;3.78;;;3.35;;
73239;SDS011;61452;40.054;4.110;2022-07-12T11:30:17;2.53;;;2.33;;
73239;SDS011;61452;40.054;4.110;2022-07-12T11:35:21;4.82;;;2.70;;
73239;SDS011;61452;40.054;4.110;2022-07-12T11:40:25;3.00;;;2.70;;
73239;SDS011;61452;40.054;4.110;2022-07-12T11:45:30;4.03;;;2.78;;
73239;SDS011;61452;40.054;4.110;2022-07-12T11:50:34;2.88;;;2.67;;
73239;SDS011;61452;40.054;4.110;2022-07-12T11:55:47;3.38;;;2.70;;
73239;SDS011;61452;40.054;4.110;2022-07-12T12:00:51;3.25;;;2.95;;
73239;SDS011;61452;40.054;4.110;2022-07-12T12:05:55;2.90;;;2.55;;
73239;SDS011;61452;40.054;4.110;2022-07-12T12:10:59;3.22;;;2.60;;
73239;SDS011;61452;40.054;4.110;2022-07-12T12:16:02;3.17;;;2.80;;
73239;SDS011;61452;40.054;4.110;2022-07-12T12:21:08;3.42;;;2.28;;
73239;SDS011;61452;40.054;4.110;2022-07-12T12:31:19;2.90;;;2.33;;
73239;SDS011;61452;40.054;4.110;2022-07-12T12:36:26;3.50;;;2.83;;
73239;SDS011;61452;40.054;4.110;2022-07-12T12:41:37;3.10;;;2.40;;
73239;SDS011;61452;40.054;4.110;2022-07-12T12:46:56;3.10;;;2.20;;
73239;SDS011;61452;40.054;4.110;2022-07-12T12:52:18;3.55;;;2.72;;
73239;SDS011;61452;40.054;4.110;2022-07-12T12:57:21;2.97;;;2.20;;
73239;SDS011;61452;40.054;4.110;2022-07-12T13:02:26;3.17;;;2.10;;
73239;SDS011;61452;40.054;4.110;2022-07-12T13:07:30;2.15;;;1.90;;
73239;SDS011;61452;40.054;4.110;2022-07-12T13:12:33;2.60;;;2.40;;
73239;SDS011;61452;40.054;4.110;2022-07-12T13:17:36;3.13;;;2.10;;
73239;SDS011;61452;40.054;4.110;2022-07-12T13:22:39;2.50;;;2.03;;
73239;SDS011;61452;40.054;4.110;2022-07-12T13:27:42;3.13;;;2.10;;
73239;SDS011;61452;40.054;4.110;2022-07-12T13:32:45;3.00;;;2.10;;
73239;SDS011;61452;40.054;4.110;2022-07-12T13:37:48;2.53;;;2.28;;
73239;SDS011;61452;40.054;4.110;2022-07-12T13:42:56;2.83;;;2.30;;
73239;SDS011;61452;40.054;4.110;2022-07-12T13:47:59;2.33;;;2.10;;
73239;SDS011;61452;40.054;4.110;2022-07-12T13:53:04;2.17;;;2.00;;
73239;SDS011;61452;40.054;4.110;2022-07-12T14:03:09;3.28;;;2.20;;
73239;SDS011;61452;40.054;4.110;2022-07-12T14:08:12;2.33;;;1.98;;
73239;SDS011;61452;40.054;4.110;2022-07-12T14:13:14;2.40;;;2.15;;
73239;SDS011;61452;40.054;4.110;2022-07-12T14:18:17;2.85;;;1.88;;
73239;SDS011;61452;40.054;4.110;2022-07-12T14:23:19;2.22;;;1.92;;
73239;SDS011;61452;40.054;4.110;2022-07-12T14:28:22;2.80;;;1.90;;
73239;SDS011;61452;40.054;4.110;2022-07-12T14:33:24;3.20;;;2.20;;
73239;SDS011;61452;40.054;4.110;2022-07-12T14:38:26;2.30;;;2.00;;
73239;SDS011;61452;40.054;4.110;2022-07-12T14:43:29;3.28;;;2.20;;
73239;SDS011;61452;40.054;4.110;2022-07-12T14:48:31;2.20;;;2.00;;
73239;SDS011;61452;40.054;4.110;2022-07-12T14:53:33;2.55;;;2.13;;
73239;SDS011;61452;40.054;4.110;2022-07-12T14:58:36;2.20;;;2.00;;
73239;SDS011;61452;40.054;4.110;2022-07-12T15:03:38;2.97;;;2.15;;
73239;SDS011;61452;40.054;4.110;2022-07-12T15:08:40;2.53;;;1.83;;
73239;SDS011;61452;40.054;4.110;2022-07-12T15:13:43;3.20;;;2.70;;
73239;SDS011;61452;40.054;4.110;2022-07-12T15:18:45;2.10;;;1.90;;
73239;SDS011;61452;40.054;4.110;2022-07-12T15:23:48;2.80;;;1.80;;
73239;SDS011;61452;40.054;4.110;2022-07-12T15:33:55;2.65;;;2.10;;
73239;SDS011;61452;40.054;4.110;2022-07-12T15:38:58;2.67;;;1.73;;
73239;SDS011;61452;40.054;4.110;2022-07-12T15:44:02;2.88;;;1.73;;
73239;SDS011;61452;40.054;4.110;2022-07-12T15:49:07;2.47;;;2.10;;
73239;SDS011;61452;40.054;4.110;2022-07-12T15:54:11;2.85;;;1.95;;
73239;SDS011;61452;40.054;4.110;2022-07-12T16:04:16;2.72;;;1.60;;
73239;SDS011;61452;40.054;4.110;2022-07-12T16:09:19;1.80;;;1.60;;
73239;SDS011;61452;40.054;4.110;2022-07-12T16:14:22;1.65;;;1.55;;
73239;SDS011;61452;40.054;4.110;2022-07-12T16:19:26;2.72;;;2.00;;
73239;SDS011;61452;40.054;4.110;2022-07-12T16:24:28;1.98;;;1.80;;
73239;SDS011;61452;40.054;4.110;2022-07-12T16:29:31;2.10;;;1.80;;
73239;SDS011;61452;40.054;4.110;2022-07-12T16:34:35;1.85;;;1.67;;
73239;SDS011;61452;40.054;4.110;2022-07-12T16:39:37;2.78;;;2.28;;
73239;SDS011;61452;40.054;4.110;2022-07-12T16:44:40;3.80;;;2.40;;
73239;SDS011;61452;40.054;4.110;2022-07-12T16:49:43;2.63;;;1.90;;
73239;SDS011;61452;40.054;4.110;2022-07-12T16:54:45;2.40;;;1.98;;
73239;SDS011;61452;40.054;4.110;2022-07-12T16:59:54;1.92;;;1.83;;
73239;SDS011;61452;40.054;4.110;2022-07-12T17:04:57;2.35;;;2.00;;
73239;SDS011;61452;40.054;4.110;2022-07-12T17:09:59;2.33;;;2.00;;
73239;SDS011;61452;40.054;4.110;2022-07-12T17:15:02;2.05;;;1.70;;
73239;SDS011;61452;40.054;4.110;2022-07-12T17:25:08;3.15;;;1.98;;
73239;SDS011;61452;40.054;4.110;2022-07-12T17:30:14;2.72;;;2.13;;
73239;SDS011;61452;40.054;4.110;2022-07-12T17:35:17;2.60;;;1.77;;
73239;SDS011;61452;40.054;4.110;2022-07-12T17:40:23;2.85;;;1.90;;
73239;SDS011;61452;40.054;4.110;2022-07-12T17:45:25;2.67;;;1.90;;
73239;SDS011;61452;40.054;4.110;2022-07-12T17:50:29;2.10;;;1.75;;
73239;SDS011;61452;40.054;4.110;2022-07-12T17:55:32;3.08;;;2.05;;
73239;SDS011;61452;40.054;4.110;2022-07-12T18:00:34;2.65;;;2.00;;
73239;SDS011;61452;40.054;4.110;2022-07-12T18:05:37;2.38;;;2.13;;
73239;SDS011;61452;40.054;4.110;2022-07-12T18:10:39;2.05;;;1.77;;
73239;SDS011;61452;40.054;4.110;2022-07-12T18:15:41;2.58;;;1.70;;
73239;SDS011;61452;40.054;4.110;2022-07-12T18:20:45;2.25;;;1.95;;
73239;SDS011;61452;40.054;4.110;2022-07-12T18:25:54;3.30;;;1.98;;
73239;SDS011;61452;40.054;4.110;2022-07-12T18:30:56;2.30;;;2.10;;
73239;SDS011;61452;40.054;4.110;2022-07-12T18:35:58;3.10;;;2.00;;
73239;SDS011;61452;40.054;4.110;2022-07-12T18:41:01;3.25;;;2.25;;
73239;SDS011;61452;40.054;4.110;2022-07-12T18:46:04;3.13;;;2.30;;
73239;SDS011;61452;40.054;4.110;2022-07-12T18:51:06;2.53;;;2.10;;
73239;SDS011;61452;40.054;4.110;2022-07-12T18:56:08;2.90;;;2.03;;
73239;SDS011;61452;40.054;4.110;2022-07-12T19:01:11;3.58;;;2.08;;
73239;SDS011;61452;40.054;4.110;2022-07-12T19:06:13;2.47;;;1.70;;
73239;SDS011;61452;40.054;4.110;2022-07-12T19:11:16;3.22;;;1.90;;
73239;SDS011;61452;40.054;4.110;2022-07-12T19:16:19;3.92;;;2.20;;
73239;SDS011;61452;40.054;4.110;2022-07-12T19:21:22;2.47;;;2.15;;
73239;SDS011;61452;40.054;4.110;2022-07-12T19:26:36;2.92;;;2.28;;
73239;SDS011;61452;40.054;4.110;2022-07-12T19:31:38;4.30;;;2.35;;
73239;SDS011;61452;40.054;4.110;2022-07-12T19:36:41;3.17;;;1.95;;
73239;SDS011;61452;40.054;4.110;2022-07-12T19:41:43;2.15;;;1.95;;
73239;SDS011;61452;40.054;4.110;2022-07-12T19:46:46;3.38;;;2.20;;
73239;SDS011;61452;40.054;4.110;2022-07-12T19:51:48;2.10;;;1.70;;
73239;SDS011;61452;40.054;4.110;2022-07-12T19:56:50;3.47;;;2.10;;
73239;SDS011;61452;40.054;4.110;2022-07-12T20:01:53;3.92;;;2.30;;
73239;SDS011;61452;40.054;4.110;2022-07-12T20:06:56;3.95;;;2.03;;
73239;SDS011;61452;40.054;4.110;2022-07-12T20:11:59;3.90;;;2.03;;
73239;SDS011;61452;40.054;4.110;2022-07-12T20:17:03;3.35;;;2.10;;
73239;SDS011;61452;40.054;4.110;2022-07-12T20:22:07;2.80;;;1.85;;
73239;SDS011;61452;40.054;4.110;2022-07-12T20:27:11;3.40;;;2.22;;
73239;SDS011;61452;40.054;4.110;2022-07-12T20:32:13;3.35;;;1.80;;
73239;SDS011;61452;40.054;4.110;2022-07-12T20:37:16;2.58;;;1.80;;
73239;SDS011;61452;40.054;4.110;2022-07-12T20:42:18;2.97;;;1.92;;
73239;SDS011;61452;40.054;4.110;2022-07-12T20:47:21;2.58;;;1.77;;
73239;SDS011;61452;40.054;4.110;2022-07-12T20:52:23;3.55;;;1.85;;
73239;SDS011;61452;40.054;4.110;2022-07-12T20:57:29;3.20;;;1.77;;
73239;SDS011;61452;40.054;4.110;2022-07-12T21:02:31;2.28;;;2.00;;
73239;SDS011;61452;40.054;4.110;2022-07-12T21:07:34;2.65;;;1.80;;
73239;SDS011;61452;40.054;4.110;2022-07-12T21:12:36;2.65;;;1.85;;
73239;SDS011;61452;40.054;4.110;2022-07-12T21:17:40;2.05;;;1.80;;
73239;SDS011;61452;40.054;4.110;2022-07-12T21:22:44;3.45;;;2.00;;
73239;SDS011;61452;40.054;4.110;2022-07-12T21:27:46;2.95;;;2.03;;
73239;SDS011;61452;40.054;4.110;2022-07-12T21:32:49;1.92;;;1.70;;
73239;SDS011;61452;40.054;4.110;2022-07-12T21:37:52;2.40;;;1.95;;
73239;SDS011;61452;40.054;4.110;2022-07-12T21:42:54;4.82;;;2.13;;
73239;SDS011;61452;40.054;4.110;2022-07-12T21:47:57;2.83;;;1.80;;
73239;SDS011;61452;40.054;4.110;2022-07-12T21:53:00;4.30;;;2.65;;
73239;SDS011;61452;40.054;4.110;2022-07-12T21:58:02;2.40;;;2.05;;
73239;SDS011;61452;40.054;4.110;2022-07-12T22:03:05;2.72;;;2.00;;
73239;SDS011;61452;40.054;4.110;2022-07-12T22:08:08;1.95;;;1.85;;
73239;SDS011;61452;40.054;4.110;2022-07-12T22:13:11;3.92;;;1.80;;
73239;SDS011;61452;40.054;4.110;2022-07-12T22:18:13;3.50;;;1.98;;
73239;SDS011;61452;40.054;4.110;2022-07-12T22:23:16;5.80;;;2.10;;
73239;SDS011;61452;40.054;4.110;2022-07-12T22:28:18;2.25;;;1.88;;
73239;SDS011;61452;40.054;4.110;2022-07-12T22:33:21;2.45;;;1.98;;
73239;SDS011;61452;40.054;4.110;2022-07-12T22:38:24;2.50;;;1.83;;
73239;SDS011;61452;40.054;4.110;2022-07-12T22:43:29;2.20;;;1.92;;
73239;SDS011;61452;40.054;4.110;2022-07-12T22:48:31;2.95;;;2.17;;
73239;SDS011;61452;40.054;4.110;2022-07-12T22:53:34;3.92;;;2.13;;
73239;SDS011;61452;40.054;4.110;2022-07-12T22:58:37;2.35;;;2.15;;
73239;SDS011;61452;40.054;4.110;2022-07-12T23:03:56;3.92;;;2.03;;
73239;SDS011;61452;40.054;4.110;2022-07-12T23:09:16;2.95;;;2.03;;
73239;SDS011;61452;40.054;4.110;2022-07-12T23:14:19;2.65;;;2.00;;
73239;SDS011;61452;40.054;4.110;2022-07-12T23:19:21;3.35;;;2.10;;
73239;SDS011;61452;40.054;4.110;2022-07-12T23:24:23;1.70;;;1.60;;
73239;SDS011;61452;40.054;4.110;2022-07-12T23:29:26;3.30;;;2.08;;
73239;SDS011;61452;40.054;4.110;2022-07-12T23:34:28;2.65;;;2.28;;
73239;SDS011;61452;40.054;4.110;2022-07-12T23:39:30;3.00;;;2.40;;
73239;SDS011;61452;40.054;4.110;2022-07-12T23:44:33;2.33;;;1.90;;
73239;SDS011;61452;40.054;4.110;2022-07-12T23:49:35;2.72;;;1.90;;
73239;SDS011;61452;40.054;4.110;2022-07-12T23:54:38;2.78;;;1.95;;
73239;SDS011;61452;40.054;4.110;2022-07-12T23:59:40;2.42;;;1.90;;
